Time;durP1;ratioP1;P1;durP2;ratioP2;P2;SDS_P1;SDS_P2;PMS_P1;PMS_P2;Temp;Humidity;BMP_temperature;BMP_pressure;BME280_temperature;BME280_humidity;BME280_pressure;Samples;Min_cycle;Max_cycle;Signal;HPM_P1;HPM_P2
2022/02/13 00:01:43;;;;;;;;;71.80;52.80;;;;;4.41;41.33;100072.59;6207959;27;96777;-69
2022/02/13 00:04:47;;;;;;;;;71.60;54.40;;;;;4.37;41.23;100068.53;6242147;27;97238;-69
2022/02/13 00:07:50;;;;;;;;;71.20;55.00;;;;;4.32;41.60;100063.66;6258375;27;96934;-69
2022/02/13 00:10:53;;;;;;;;;68.20;52.00;;;;;4.31;41.11;100075.34;6241335;27;96603;-71
2022/02/13 00:13:58;;;;;;;;;69.80;53.00;;;;;4.32;41.53;100068.16;6241516;27;98220;-70
2022/02/13 00:17:01;;;;;;;;;69.00;52.25;;;;;4.31;41.40;100063.81;6260170;27;96579;-71
2022/02/13 00:20:05;;;;;;;;;67.00;50.80;;;;;4.28;41.67;100062.31;6261935;27;96465;-70
2022/02/13 00:23:09;;;;;;;;;70.50;51.00;;;;;4.27;41.72;100054.44;6260435;27;96510;-70
2022/02/13 00:26:12;;;;;;;;;67.75;51.50;;;;;4.21;41.73;100063.06;6239681;27;97104;-72
2022/02/13 00:29:17;;;;;;;;;70.50;52.00;;;;;4.16;41.76;100055.50;6242167;27;96626;-70
2022/02/13 00:32:21;;;;;;;;;67.50;52.00;;;;;4.17;41.76;100048.34;6242647;27;98542;-70
2022/02/13 00:35:26;;;;;;;;;69.00;52.00;;;;;4.14;41.60;100044.16;6239409;27;96618;-70
2022/02/13 00:38:29;;;;;;;;;67.00;51.40;;;;;4.13;41.56;100055.81;6221579;28;96717;-71
2022/02/13 00:41:32;;;;;;;;;66.00;51.00;;;;;4.10;41.98;100045.47;6220449;28;98537;-70
2022/02/13 00:44:39;;;;;;;;;67.80;51.00;;;;;3.87;41.62;100007.69;6241263;27;97058;-70
2022/02/13 00:47:42;;;;;;;;;66.00;50.00;;;;;4.10;41.61;100039.28;6240107;28;96697;-73
2022/02/13 00:50:45;;;;;;;;;67.00;51.00;;;;;4.04;41.86;100026.53;6238120;28;96590;-72
2022/02/13 00:53:49;;;;;;;;;65.80;50.00;;;;;3.67;42.20;99982.13;6230826;27;97052;-69
2022/02/13 00:56:52;;;;;;;;;65.50;50.75;;;;;3.91;41.99;100017.06;6262288;27;96564;-69
2022/02/13 00:59:59;;;;;;;;;64.00;49.50;;;;;3.87;41.79;100022.84;6239340;27;96594;-72
2022/02/13 01:03:03;;;;;;;;;66.00;50.00;;;;;3.84;42.31;100026.69;6229263;28;97051;-70
2022/02/13 01:06:06;;;;;;;;;63.00;50.00;;;;;3.82;42.10;100023.31;6207774;28;96875;-69
2022/02/13 01:09:09;;;;;;;;;67.40;50.40;;;;;3.85;42.07;100019.53;6221494;28;98063;-71
2022/02/13 01:12:13;;;;;;;;;67.60;50.00;;;;;3.84;41.99;100015.16;6224697;28;97232;-70
2022/02/13 01:15:18;;;;;;;;;62.00;48.00;;;;;3.80;42.45;100008.47;6215766;28;96833;-71
2022/02/13 01:18:21;;;;;;;;;63.80;49.80;;;;;3.77;42.24;100012.25;6233929;28;97202;-71
2022/02/13 01:21:25;;;;;;;;;63.00;48.00;;;;;3.78;42.60;100010.44;6238178;28;96567;-69
2022/02/13 01:24:29;;;;;;;;;66.60;48.00;;;;;3.77;42.51;100006.91;6222145;28;97513;-71
2022/02/13 01:27:32;;;;;;;;;63.80;50.00;;;;;3.50;42.86;99969.66;6215970;28;96927;-72
2022/02/13 01:30:37;;;;;;;;;65.75;49.00;;;;;3.78;42.52;100002.44;6222726;28;96525;-72
2022/02/13 01:33:41;;;;;;;;;61.40;48.00;;;;;3.67;42.81;100003.47;6230735;28;98580;-71
2022/02/13 01:36:44;;;;;;;;;64.00;48.40;;;;;3.62;42.74;99986.25;6215511;28;97060;-70
2022/02/13 01:39:47;;;;;;;;;63.00;50.00;;;;;3.60;42.73;99993.56;6212545;28;97442;-70
2022/02/13 01:42:51;;;;;;;;;63.20;49.20;;;;;3.55;42.81;99978.03;6219490;27;97473;-71
2022/02/13 01:45:56;;;;;;;;;64.60;50.00;;;;;3.52;42.68;99980.16;6237563;28;96948;-71
2022/02/13 01:48:59;;;;;;;;;61.00;48.00;;;;;3.52;42.90;99970.31;6219468;28;97764;-69
2022/02/13 01:52:05;;;;;;;;;65.60;49.60;;;;;3.36;42.71;99943.50;6237032;28;97070;-69
2022/02/13 01:55:09;;;;;;;;;63.00;49.00;;;;;3.52;42.65;99972.16;6233996;28;97113;-72
2022/02/13 01:58:14;;;;;;;;;65.80;49.00;;;;;3.47;42.72;99962.75;6210412;28;97131;-70
2022/02/13 02:01:18;;;;;;;;;65.20;49.40;;;;;3.43;42.92;99960.56;6242165;27;97487;-69
2022/02/13 02:04:21;;;;;;;;;62.20;47.60;;;;;3.43;42.48;99952.56;6243281;27;97016;-68
2022/02/13 02:07:26;;;;;;;;;63.20;49.00;;;;;3.41;42.76;99947.41;6245019;27;98008;-68
2022/02/13 02:10:30;;;;;;;;;62.20;46.40;;;;;3.34;42.91;99954.31;6229528;27;98593;-68
2022/02/13 02:13:34;;;;;;;;;64.40;46.20;;;;;3.27;43.23;99947.91;6240439;27;97387;-69
2022/02/13 02:16:40;;;;;;;;;62.00;48.00;;;;;3.26;42.95;99940.91;6237832;28;97377;-72
2022/02/13 02:19:43;;;;;;;;;61.60;46.00;;;;;3.27;43.12;99933.75;6249508;27;97176;-70
2022/02/13 02:22:49;;;;;;;;;61.00;46.00;;;;;3.12;43.36;99911.25;6264172;27;97081;-70
2022/02/13 02:25:53;;;;;;;;;59.00;46.00;;;;;3.30;43.25;99933.44;6260897;27;96393;-69
2022/02/13 02:28:57;;;;;;;;;56.60;44.40;;;;;3.29;43.36;99934.41;6257368;27;97082;-69
2022/02/13 02:32:00;;;;;;;;;61.50;46.00;;;;;3.12;43.67;99913.91;6233697;27;96563;-70
2022/02/13 02:35:04;;;;;;;;;58.40;46.00;;;;;3.13;43.18;99897.75;6211390;27;98511;-68
2022/02/13 02:38:07;;;;;;;;;60.20;46.80;;;;;3.24;43.62;99923.34;6228072;27;99209;-70
2022/02/13 02:41:13;;;;;;;;;61.00;45.50;;;;;2.98;43.37;99881.44;6261524;27;97437;-69
2022/02/13 02:44:16;;;;;;;;;58.00;45.00;;;;;3.20;42.92;99920.16;6234228;28;96982;-68
2022/02/13 02:47:19;;;;;;;;;60.60;47.00;;;;;3.05;43.00;99901.19;6228129;27;96560;-70
2022/02/13 02:50:23;;;;;;;;;61.00;46.00;;;;;3.17;43.25;99917.81;6261992;27;98130;-69
2022/02/13 02:53:28;;;;;;;;;58.00;44.80;;;;;3.17;43.54;99907.16;6260530;27;98270;-68
2022/02/13 02:56:33;;;;;;;;;57.00;44.67;;;;;3.12;43.83;99903.25;6213784;28;97840;-68
2022/02/13 02:59:36;;;;;;;;;60.00;46.50;;;;;3.10;43.78;99913.22;6223290;28;96615;-69
2022/02/13 03:02:40;;;;;;;;;58.40;46.00;;;;;3.01;44.07;99909.63;6236473;28;97511;-70
2022/02/13 03:05:43;;;;;;;;;63.40;48.00;;;;;2.94;44.21;99905.84;6260423;27;97450;-69
2022/02/13 03:08:47;;;;;;;;;60.60;46.20;;;;;2.93;44.07;99901.53;6244416;27;96677;-70
2022/02/13 03:11:52;;;;;;;;;59.25;44.75;;;;;2.85;43.81;99888.94;6261987;27;97484;-69
2022/02/13 03:14:55;;;;;;;;;60.00;46.00;;;;;2.81;44.01;99889.41;6231173;28;97236;-70
2022/02/13 03:17:58;;;;;;;;;63.20;47.00;;;;;2.77;43.82;99888.88;6235887;28;98037;-71
2022/02/13 03:21:01;;;;;;;;;63.80;49.00;;;;;2.76;44.09;99881.84;6219490;28;99199;-68
2022/02/13 03:24:07;;;;;;;;;57.80;45.00;;;;;2.76;43.74;99881.84;6228383;27;97015;-68
2022/02/13 03:27:11;;;;;;;;;60.00;46.00;;;;;2.78;43.96;99887.88;6230293;27;98293;-68
2022/02/13 03:30:15;;;;;;;;;60.00;45.00;;;;;2.83;44.25;99880.28;6251166;27;97371;-70
2022/02/13 03:33:18;;;;;;;;;57.80;44.20;;;;;2.85;43.92;99888.09;6262898;27;97455;-69
2022/02/13 03:36:22;;;;;;;;;60.40;46.80;;;;;2.85;43.82;99888.09;6236576;27;97539;-70
2022/02/13 03:39:28;;;;;;;;;59.40;46.00;;;;;2.77;43.97;99880.88;6235624;27;99574;-69
2022/02/13 03:42:33;;;;;;;;;60.60;45.60;;;;;2.73;43.96;99889.31;6245012;27;98167;-69
2022/02/13 03:45:37;;;;;;;;;61.20;46.80;;;;;2.73;43.84;99882.16;6239551;27;97027;-71
2022/02/13 03:48:40;;;;;;;;;60.00;47.00;;;;;2.71;43.68;99889.44;6240620;27;96881;-68
2022/02/13 03:51:44;;;;;;;;;61.80;46.00;;;;;2.63;43.65;99877.84;6219131;28;97415;-69
2022/02/13 03:54:48;;;;;;;;;59.50;47.25;;;;;2.54;44.50;99880.41;6249021;27;97569;-69
2022/02/13 03:57:53;;;;;;;;;62.00;46.25;;;;;2.54;44.10;99874.25;6221854;28;97481;-72
2022/02/13 04:00:56;;;;;;;;;62.00;46.20;;;;;2.49;43.98;99869.34;6246329;27;98422;-70
2022/02/13 04:04:00;;;;;;;;;62.33;47.33;;;;;2.53;43.64;99870.75;6240681;27;98449;-71
2022/02/13 04:07:04;;;;;;;;;59.40;47.00;;;;;2.53;43.54;99867.25;6238771;27;96415;-70
2022/02/13 04:10:09;;;;;;;;;62.00;47.40;;;;;2.53;43.92;99862.78;6224284;28;98377;-69
2022/02/13 04:13:13;;;;;;;;;63.40;46.00;;;;;2.53;44.01;99852.13;6252233;27;98094;-72
2022/02/13 04:16:17;;;;;;;;;61.00;46.00;;;;;2.49;43.89;99853.38;6243617;27;96844;-69
2022/02/13 04:19:20;;;;;;;;;58.00;46.00;;;;;2.57;43.71;99848.19;6222710;27;98528;-69
2022/02/13 04:22:23;;;;;;;;;57.00;44.60;;;;;2.55;43.97;99847.47;6237362;27;98482;-68
2022/02/13 04:25:27;;;;;;;;;63.00;46.40;;;;;2.57;43.93;99848.19;6234507;28;97276;-71
2022/02/13 04:28:32;;;;;;;;;58.00;45.40;;;;;2.53;44.02;99848.63;6221292;27;97023;-70
2022/02/13 04:31:35;;;;;;;;;57.33;44.00;;;;;2.51;44.33;99842.59;6268864;27;96698;-73
2022/02/13 04:34:42;;;;;;;;;61.60;46.80;;;;;2.45;44.11;99836.03;6248792;27;97186;-69
2022/02/13 04:37:50;;;;;;;;;60.60;46.00;;;;;2.45;44.25;99827.22;6241826;28;96483;-69
2022/02/13 04:40:54;;;;;;;;;58.50;46.00;;;;;2.43;43.89;99830.03;6207096;27;99670;-71
2022/02/13 04:44:00;;;;;;;;;61.40;46.60;;;;;2.40;43.78;99824.97;6241804;27;97509;-70
2022/02/13 04:47:04;;;;;;;;;58.00;45.80;;;;;2.25;44.05;99812.34;6221390;28;97130;-71
2022/02/13 04:50:09;;;;;;;;;57.60;45.60;;;;;2.35;44.50;99813.09;6256916;27;97148;-71
2022/02/13 04:53:12;;;;;;;;;57.00;46.00;;;;;2.39;44.00;99804.72;6264074;27;98473;-71
2022/02/13 04:56:16;;;;;;;;;59.80;46.00;;;;;2.40;44.17;99818.81;6217806;27;99025;-71
2022/02/13 04:59:21;;;;;;;;;57.33;45.33;;;;;2.38;45.04;99807.50;6251746;27;96709;-72
2022/02/13 05:02:24;;;;;;;;;57.20;46.00;;;;;2.32;44.35;99806.25;6228232;28;96979;-70
2022/02/13 05:05:27;;;;;;;;;59.40;46.00;;;;;2.29;44.76;99811.88;6254992;27;97518;-72
2022/02/13 05:08:31;;;;;;;;;59.50;46.25;;;;;2.28;44.27;99802.22;6229329;27;98330;-71
2022/02/13 05:11:34;;;;;;;;;56.00;44.00;;;;;2.28;44.28;99814.69;6240302;27;97554;-71
2022/02/13 05:14:40;;;;;;;;;57.00;46.00;;;;;2.25;44.43;99810.47;6257826;27;96929;-70
2022/02/13 05:17:44;;;;;;;;;62.00;46.00;;;;;2.24;44.48;99800.00;6230751;27;96869;-71
2022/02/13 05:20:47;;;;;;;;;56.80;45.00;;;;;2.23;44.17;99796.50;6255866;27;97048;-70
2022/02/13 05:23:50;;;;;;;;;58.20;45.40;;;;;2.20;44.33;99794.13;6240590;27;97776;-71
2022/02/13 05:26:53;;;;;;;;;59.00;46.00;;;;;2.15;44.96;99793.75;6255204;27;98224;-72
2022/02/13 05:29:58;;;;;;;;;58.40;45.60;;;;;2.15;44.79;99793.75;6235310;27;96871;-69
2022/02/13 05:33:01;;;;;;;;;60.60;45.00;;;;;2.21;44.38;99795.81;6258317;27;96585;-70
2022/02/13 05:36:05;;;;;;;;;61.00;46.00;;;;;2.26;44.11;99782.06;6261424;27;100583;-70
2022/02/13 05:39:08;;;;;;;;;60.40;46.60;;;;;2.30;43.86;99784.28;6239532;27;96615;-69
2022/02/13 05:42:11;;;;;;;;;59.40;46.00;;;;;2.29;43.75;99785.28;6235309;28;97334;-69
2022/02/13 05:45:18;;;;;;;;;59.50;46.00;;;;;2.18;44.06;99783.66;6241261;27;96365;-70
2022/02/13 05:48:22;;;;;;;;;56.25;44.25;;;;;2.12;43.99;99773.59;6239495;28;97505;-73
2022/02/13 05:51:26;;;;;;;;;57.25;44.25;;;;;2.06;44.03;99766.19;6237850;28;96530;-71
2022/02/13 05:54:30;;;;;;;;;59.20;46.00;;;;;2.14;44.40;99776.94;6241303;27;97099;-69
2022/02/13 05:57:33;;;;;;;;;56.50;44.00;;;;;2.15;44.15;99767.97;6219487;27;98386;-71
2022/02/13 06:00:38;;;;;;;;;60.00;46.00;;;;;2.18;44.31;99759.69;6243182;27;99048;-72
2022/02/13 06:03:42;;;;;;;;;61.50;44.50;;;;;2.24;44.30;99768.91;6261904;27;97504;-71
2022/02/13 06:06:45;;;;;;;;;57.60;44.00;;;;;2.32;44.11;99754.88;6206167;28;98381;-69
2022/02/13 06:09:48;;;;;;;;;60.00;45.00;;;;;2.40;44.60;99763.78;6238118;28;96427;-69
2022/02/13 06:12:51;;;;;;;;;55.60;43.40;;;;;2.54;44.23;99757.94;6223258;28;96572;-69
2022/02/13 06:15:56;;;;;;;;;58.00;44.25;;;;;2.70;43.88;99756.44;6249200;27;98194;-69
2022/02/13 06:18:59;;;;;;;;;59.00;45.00;;;;;2.82;43.98;99748.13;6241455;27;99085;-70
2022/02/13 06:22:03;;;;;;;;;57.50;45.00;;;;;3.08;43.21;99745.50;6246344;27;96980;-70
2022/02/13 06:25:08;;;;;;;;;58.80;44.80;;;;;3.48;42.70;99740.50;6244931;27;97572;-69
2022/02/13 06:28:11;;;;;;;;;56.00;43.00;;;;;3.86;42.21;99717.91;6241108;27;96740;-69
2022/02/13 06:31:16;;;;;;;;;56.20;43.00;;;;;4.62;40.88;99728.56;6219287;28;97658;-71
2022/02/13 06:34:21;;;;;;;;;56.00;44.00;;;;;5.48;39.68;99734.31;6225329;27;96560;-68
2022/02/13 06:37:24;;;;;;;;;52.00;38.60;;;;;6.65;37.84;99720.22;6240157;27;100058;-71
2022/02/13 06:40:28;;;;;;;;;40.60;33.00;;;;;7.72;35.47;99718.19;6228051;27;96650;-70
2022/02/13 06:43:33;;;;;;;;;44.20;35.20;;;;;8.79;34.03;99719.47;6245230;27;97142;-70
2022/02/13 06:46:39;;;;;;;;;37.00;32.00;;;;;9.64;32.32;99705.97;6245825;27;96552;-71
2022/02/13 06:49:42;;;;;;;;;36.80;32.00;;;;;11.00;30.48;99714.13;6240847;28;97977;-70
2022/02/13 06:52:45;;;;;;;;;22.00;20.00;;;;;13.32;26.99;99699.88;6237166;28;96358;-68
2022/02/13 06:55:49;;;;;;;;;25.00;23.00;;;;;15.45;24.94;99701.59;6237276;27;97349;-71
2022/02/13 06:58:52;;;;;;;;;33.60;29.00;;;;;17.17;23.06;99695.34;6256834;27;97611;-71
2022/02/13 07:01:57;;;;;;;;;32.00;27.40;;;;;18.53;21.54;99691.22;6221955;28;96721;-69
2022/02/13 07:05:01;;;;;;;;;27.40;25.00;;;;;19.69;20.40;99685.34;6242972;27;97331;-70
2022/02/13 07:08:04;;;;;;;;;24.80;22.40;;;;;20.81;19.05;99686.84;6234025;27;98598;-69
2022/02/13 07:11:08;;;;;;;;;26.00;21.60;;;;;22.06;17.79;99676.28;6256785;27;97463;-69
2022/02/13 07:14:11;;;;;;;;;22.00;18.80;;;;;22.96;16.31;99683.41;6261387;27;96512;-69
2022/02/13 07:17:19;;;;;;;;;18.25;18.00;;;;;23.93;15.85;99684.34;6238353;27;99745;-69
2022/02/13 07:20:22;;;;;;;;;17.00;16.00;;;;;24.63;14.85;99683.91;6230334;27;96689;-71
2022/02/13 07:23:25;;;;;;;;;16.25;15.75;;;;;25.25;14.40;99678.09;6254544;27;97353;-72
2022/02/13 07:26:28;;;;;;;;;17.00;15.00;;;;;25.94;13.67;99670.91;6249571;27;97553;-70
2022/02/13 07:29:31;;;;;;;;;18.00;15.40;;;;;26.61;13.28;99666.59;6255206;27;96873;-71
2022/02/13 07:32:36;;;;;;;;;18.00;14.00;;;;;27.17;12.47;99662.63;6243404;27;99719;-71
2022/02/13 07:35:40;;;;;;;;;16.00;15.00;;;;;27.74;12.21;99654.59;6235736;27;96652;-70
2022/02/13 07:38:44;;;;;;;;;22.60;19.80;;;;;28.27;11.85;99666.50;6249794;27;97542;-69
2022/02/13 07:41:47;;;;;;;;;16.00;15.80;;;;;28.69;11.23;99655.84;6244043;27;97481;-71
2022/02/13 07:44:50;;;;;;;;;20.00;19.00;;;;;29.35;10.71;99653.88;6265661;27;97023;-72
2022/02/13 07:47:55;;;;;;;;;19.00;18.50;;;;;29.78;10.59;99657.44;6263834;27;96796;-70
2022/02/13 07:50:58;;;;;;;;;20.00;19.00;;;;;30.07;10.66;99659.50;6237654;27;97795;-71
2022/02/13 07:54:02;;;;;;;;;24.00;21.40;;;;;30.17;10.25;99653.59;6240222;27;98818;-70
2022/02/13 07:57:05;;;;;;;;;25.00;21.00;;;;;30.48;10.35;99659.72;6264232;27;97271;-72
2022/02/13 08:00:10;;;;;;;;;22.80;22.00;;;;;30.71;10.49;99656.63;6240028;27;97268;-69
2022/02/13 08:03:17;;;;;;;;;23.00;21.60;;;;;30.86;10.65;99659.66;6261506;27;97032;-69
2022/02/13 08:06:21;;;;;;;;;26.60;24.00;;;;;31.07;10.04;99658.91;6256561;27;96833;-70
2022/02/13 08:09:24;;;;;;;;;26.20;24.20;;;;;31.19;10.20;99645.03;6242681;27;98276;-70
2022/02/13 08:12:27;;;;;;;;;27.00;25.00;;;;;31.36;9.82;99648.50;6242733;27;98447;-68
2022/02/13 08:15:31;;;;;;;;;23.00;22.00;;;;;31.55;9.79;99650.78;6254967;27;97576;-71
2022/02/13 08:18:39;;;;;;;;;24.40;21.40;;;;;31.65;9.78;99652.34;6234609;27;97188;-69
2022/02/13 08:21:43;;;;;;;;;31.80;29.80;;;;;31.69;10.03;99645.75;6234862;27;97811;-69
2022/02/13 08:24:46;;;;;;;;;45.00;38.00;;;;;31.57;10.88;99633.75;6256818;27;97966;-69
2022/02/13 08:27:50;;;;;;;;;45.00;36.60;;;;;31.49;10.72;99623.47;6238798;27;97750;-69
2022/02/13 08:30:54;;;;;;;;;40.20;35.60;;;;;31.61;10.46;99632.72;6259819;27;98102;-70
2022/02/13 08:33:58;;;;;;;;;47.00;37.00;;;;;31.69;10.20;99633.78;6259970;27;97103;-71
2022/02/13 08:37:02;;;;;;;;;34.80;31.00;;;;;31.80;10.24;99627.44;6244852;27;96543;-71
2022/02/13 08:40:06;;;;;;;;;30.00;27.00;;;;;31.72;9.90;99622.75;6232967;27;98601;-71
2022/02/13 08:43:09;;;;;;;;;27.80;26.00;;;;;32.05;9.42;99621.91;6254230;27;97864;-70
2022/02/13 08:46:13;;;;;;;;;25.00;24.00;;;;;32.18;9.46;99623.56;6239743;27;97379;-70
2022/02/13 08:49:17;;;;;;;;;23.75;23.00;;;;;32.39;9.39;99618.72;6260338;27;98503;-71
2022/02/13 08:52:21;;;;;;;;;21.00;19.25;;;;;32.55;9.05;99629.97;6240313;27;97934;-68
2022/02/13 08:55:24;;;;;;;;;22.00;21.00;;;;;32.36;9.30;99619.38;6240875;27;98548;-69
2022/02/13 08:58:27;;;;;;;;;21.50;18.50;;;;;32.30;8.64;99615.22;6219754;27;99821;-70
2022/02/13 09:01:31;;;;;;;;;22.00;21.00;;;;;32.09;8.86;99581.81;6239659;27;97587;-69
2022/02/13 09:04:36;;;;;;;;;15.25;14.75;;;;;32.52;8.61;99617.53;6252733;27;96644;-71
2022/02/13 09:07:40;;;;;;;;;16.25;15.75;;;;;32.04;8.97;99620.28;6249021;27;97424;-73
2022/02/13 09:10:43;;;;;;;;;19.00;16.50;;;;;31.92;8.51;99621.06;6283721;27;96513;-71
2022/02/13 09:13:46;;;;;;;;;18.67;16.00;;;;;32.05;8.45;99616.31;6239574;27;97443;-70
2022/02/13 09:16:50;;;;;;;;;14.75;13.00;;;;;31.91;8.16;99611.09;6220887;28;96784;-69
2022/02/13 09:19:54;;;;;;;;;14.00;12.40;;;;;32.12;8.45;99606.25;6241806;28;96861;-70
2022/02/13 09:22:57;;;;;;;;;13.60;11.60;;;;;32.33;7.88;99608.94;6258452;27;97410;-70
2022/02/13 09:26:01;;;;;;;;;10.80;9.00;;;;;32.23;7.74;99609.41;6247696;27;97446;-71
2022/02/13 09:29:04;;;;;;;;;16.00;13.00;;;;;32.20;7.98;99607.31;6213953;28;99601;-70
2022/02/13 09:32:09;;;;;;;;;14.60;13.00;;;;;31.96;7.75;99624.78;6254165;27;96843;-69
2022/02/13 09:35:15;;;;;;;;;14.00;13.60;;;;;31.33;8.45;99592.63;6228863;27;96739;-71
2022/02/13 09:38:18;;;;;;;;;13.00;12.00;;;;;31.64;8.65;99597.75;6264201;27;96447;-72
2022/02/13 09:41:22;;;;;;;;;13.00;13.00;;;;;32.18;8.21;99592.88;6240045;27;97460;-71
2022/02/13 09:44:25;;;;;;;;;12.00;11.00;;;;;32.17;7.56;99603.22;6238068;28;97073;-70
2022/02/13 09:47:29;;;;;;;;;9.00;8.00;;;;;31.92;7.65;99522.63;6204651;28;99036;-70
2022/02/13 09:50:36;;;;;;;;;11.00;9.00;;;;;32.51;7.18;99595.53;6221308;28;98202;-70
2022/02/13 09:53:40;;;;;;;;;9.00;8.00;;;;;32.42;7.05;99587.28;6263722;27;96636;-70
2022/02/13 09:56:43;;;;;;;;;7.40;7.00;;;;;31.91;7.20;99590.75;6264261;27;97480;-70
2022/02/13 09:59:55;;;;;;;;;9.00;9.00;;;;;31.55;7.75;99574.72;6267865;27;96361;-69
2022/02/13 10:02:58;;;;;;;;;6.40;6.00;;;;;31.44;7.25;99577.09;6248031;27;97938;-70
2022/02/13 10:06:21;;;;;;;;;6.20;6.20;;;;;31.11;7.61;99576.28;6222683;28;97155;-71
2022/02/13 10:09:38;;;;;;;;;7.00;6.00;;;;;30.45;7.41;99565.72;6240108;27;97388;-71
2022/02/13 10:12:43;;;;;;;;;7.00;6.00;;;;;30.12;7.85;99567.56;6247755;27;97500;-71
2022/02/13 10:15:48;;;;;;;;;7.00;6.60;;;;;30.12;8.61;99557.25;6246094;27;97296;-70
2022/02/13 10:18:57;;;;;;;;;8.00;7.00;;;;;30.08;7.87;99595.22;6262847;27;97378;-72
2022/02/13 10:22:02;;;;;;;;;8.00;7.00;;;;;29.83;8.03;99537.72;6265708;27;97899;-69
2022/02/13 10:25:14;;;;;;;;;8.00;8.00;;;;;29.31;7.93;99508.47;6264881;27;97604;-69
2022/02/13 10:28:19;;;;;;;;;9.80;8.00;;;;;29.66;8.40;99537.81;6267293;27;97413;-69
2022/02/13 10:31:23;;;;;;;;;9.00;8.00;;;;;30.16;8.42;99543.47;6265813;27;97626;-69
2022/02/13 10:34:26;;;;;;;;;7.00;6.80;;;;;30.14;7.75;99537.47;6264981;27;97064;-69
2022/02/13 10:37:40;;;;;;;;;6.60;6.00;;;;;30.65;7.55;99527.16;6249457;27;96867;-69
2022/02/13 10:40:43;;;;;;;;;7.00;6.00;;;;;30.43;7.63;99528.28;6237444;27;97626;-71
2022/02/13 10:43:51;;;;;;;;;5.80;5.80;;;;;30.27;8.12;99525.25;6252027;27;98249;-72
2022/02/13 10:46:55;;;;;;;;;7.00;6.00;;;;;29.16;8.29;99496.72;6264949;27;96488;-70
2022/02/13 10:50:01;;;;;;;;;8.00;7.00;;;;;28.82;8.46;99521.75;6244011;27;96698;-70
2022/02/13 10:53:08;;;;;;;;;7.00;7.00;;;;;26.84;8.67;99240.56;6263589;27;96682;-70
2022/02/13 10:56:12;;;;;;;;;8.00;8.00;;;;;28.65;9.07;99514.19;6247334;27;98537;-69
2022/02/13 10:59:15;;;;;;;;;9.00;8.00;;;;;28.45;8.72;99503.72;6245189;27;100048;-69
2022/02/13 11:02:20;;;;;;;;;7.00;6.00;;;;;26.97;9.21;99256.28;6257703;27;97973;-69
2022/02/13 11:05:28;;;;;;;;;7.00;7.00;;;;;27.98;8.90;99422.25;6230119;27;96869;-69
2022/02/13 11:08:40;;;;;;;;;9.00;8.40;;;;;28.68;8.99;99474.72;6240406;27;98471;-68
2022/02/13 11:12:05;;;;;;;;;8.00;8.00;;;;;28.60;8.00;99471.91;6253982;27;96685;-70
2022/02/13 11:15:17;;;;;;;;;8.00;6.25;;;;;28.69;8.67;99467.16;6246595;27;97991;-70
2022/02/13 11:18:25;;;;;;;;;11.00;8.00;;;;;28.73;8.03;99468.19;6250385;27;97062;-69
2022/02/13 11:21:30;;;;;;;;;6.60;6.60;;;;;29.29;7.54;99473.47;6247180;27;96669;-71
2022/02/13 11:24:37;;;;;;;;;6.00;6.00;;;;;29.52;7.67;99473.25;6244093;27;96901;-71
2022/02/13 11:27:57;;;;;;;;;7.25;6.00;;;;;29.75;7.63;99446.88;6264687;27;96471;-70
2022/02/13 11:31:00;;;;;;;;;6.20;6.00;;;;;29.83;7.11;99465.44;6220087;28;99572;-70
2022/02/13 11:34:04;;;;;;;;;6.00;6.00;;;;;28.81;7.52;99320.28;6264012;27;97480;-70
2022/02/13 11:37:14;;;;;;;;;6.60;6.00;;;;;30.05;7.16;99454.09;6244939;27;96803;-72
2022/02/13 11:40:50;;;;;;;;;5.60;5.00;;;;;30.17;7.52;99447.78;6230106;27;96783;-73
2022/02/13 11:44:00;;;;;;;;;5.50;5.50;;;;;30.25;7.82;99449.66;6263228;27;98025;-70
2022/02/13 11:47:05;;;;;;;;;5.20;5.20;;;;;29.72;6.93;99444.72;6243188;27;96646;-70
2022/02/13 11:50:14;;;;;;;;;5.60;5.00;;;;;29.12;7.27;99440.22;6236860;27;97130;-73
2022/02/13 11:53:25;;;;;;;;;5.00;5.00;;;;;28.39;7.29;99421.84;6251872;27;97456;-70
2022/02/13 11:56:30;;;;;;;;;8.40;7.40;;;;;27.75;7.82;99420.75;6266105;27;96389;-72
2022/02/13 11:59:51;;;;;;;;;5.60;5.00;;;;;27.23;8.17;99426.03;6261853;27;96510;-72
2022/02/13 12:02:56;;;;;;;;;5.00;5.00;;;;;27.06;8.55;99398.28;6252004;27;96685;-69
2022/02/13 12:06:30;;;;;;;;;6.00;6.00;;;;;26.97;8.70;99414.03;6231199;27;97396;-72
2022/02/13 12:09:33;;;;;;;;;9.00;7.00;;;;;26.50;9.14;99410.72;6262236;27;97968;-73
2022/02/13 12:12:39;;;;;;;;;7.00;6.00;;;;;26.05;9.14;99406.25;6258564;27;97417;-70
2022/02/13 12:15:51;;;;;;;;;7.00;7.00;;;;;25.43;9.23;99406.69;6261698;27;97975;-71
2022/02/13 12:18:54;;;;;;;;;10.00;7.00;;;;;24.71;9.76;99401.97;6244232;27;96731;-72
2022/02/13 12:22:15;;;;;;;;;7.40;6.40;;;;;23.77;9.74;99388.22;6260440;27;97563;-71
2022/02/13 12:25:19;;;;;;;;;7.00;6.20;;;;;23.75;10.16;99387.69;6250139;27;97986;-71
2022/02/13 12:28:31;;;;;;;;;9.00;8.40;;;;;23.66;10.48;99356.41;6213602;27;96816;-70
2022/02/13 12:31:34;;;;;;;;;7.25;7.25;;;;;23.81;10.51;99374.66;6236104;27;99730;-73
2022/02/13 12:34:58;;;;;;;;;6.20;6.00;;;;;23.84;9.84;99379.59;6243418;27;96627;-70
2022/02/13 12:38:03;;;;;;;;;7.00;6.40;;;;;23.99;10.03;99373.88;6240207;27;98508;-72
2022/02/13 12:41:07;;;;;;;;;9.00;8.00;;;;;24.23;9.80;99380.16;6245359;27;98401;-72
2022/02/13 12:44:11;;;;;;;;;7.00;6.00;;;;;24.08;9.96;99370.16;6253136;27;96595;-72
2022/02/13 12:47:15;;;;;;;;;8.00;7.40;;;;;24.13;9.91;99359.06;6259646;27;98586;-72
2022/02/13 12:50:20;;;;;;;;;6.00;6.00;;;;;24.46;10.07;99368.19;6258572;27;96906;-70
2022/02/13 12:53:26;;;;;;;;;7.50;7.50;;;;;24.72;9.87;99360.31;6255409;27;96874;-72
2022/02/13 12:56:29;;;;;;;;;8.00;7.40;;;;;24.57;10.08;99306.25;6255960;27;97055;-70
2022/02/13 12:59:33;;;;;;;;;6.40;6.00;;;;;24.85;9.59;99350.41;6233562;27;97305;-69
2022/02/13 13:02:39;;;;;;;;;7.40;7.00;;;;;24.29;9.90;99340.34;6260462;27;97424;-70
2022/02/13 13:05:45;;;;;;;;;8.00;8.00;;;;;23.65;10.29;99341.03;6261547;27;97331;-69
2022/02/13 13:08:49;;;;;;;;;8.00;7.50;;;;;22.86;10.69;99271.84;6247915;27;97358;-69
2022/02/13 13:11:52;;;;;;;;;7.00;7.00;;;;;22.68;11.40;99290.97;6236790;27;97886;-72
2022/02/13 13:14:58;;;;;;;;;8.00;7.00;;;;;22.38;10.91;99261.91;6237334;27;97231;-70
2022/02/13 13:18:04;;;;;;;;;7.00;6.00;;;;;22.71;10.88;99340.75;6239224;27;96692;-69
2022/02/13 13:21:22;;;;;;;;;7.00;7.00;;;;;22.41;11.21;99302.53;6235795;27;98575;-70
2022/02/13 13:24:48;;;;;;;;;8.75;7.75;;;;;22.19;11.33;99324.13;6231478;27;97134;-70
2022/02/13 13:28:06;;;;;;;;;8.50;7.00;;;;;22.02;11.29;99313.56;6239737;27;98009;-72
2022/02/13 13:31:15;;;;;;;;;7.00;7.00;;;;;22.14;11.49;99304.97;6237964;27;97925;-72
2022/02/13 13:34:20;;;;;;;;;8.00;7.00;;;;;22.04;11.30;99284.69;6234407;27;97300;-69
2022/02/13 13:37:30;;;;;;;;;8.00;7.00;;;;;21.84;11.32;99303.25;6256374;27;96625;-70
2022/02/13 13:40:35;;;;;;;;;8.00;8.00;;;;;21.44;11.84;99272.22;6253139;27;96641;-73
2022/02/13 13:43:38;;;;;;;;;8.75;7.75;;;;;21.35;11.98;99297.78;6226373;27;97979;-71
2022/02/13 13:46:43;;;;;;;;;7.00;7.00;;;;;20.92;12.14;99260.91;6256257;27;97664;-70
2022/02/13 13:49:47;;;;;;;;;8.60;7.00;;;;;20.75;11.96;99267.56;6242448;27;97310;-69
2022/02/13 13:52:51;;;;;;;;;9.40;8.00;;;;;20.71;12.03;99296.59;6237667;27;97825;-71
2022/02/13 13:55:54;;;;;;;;;8.00;8.00;;;;;20.64;12.40;99290.59;6229470;27;99699;-72
2022/02/13 13:58:57;;;;;;;;;9.00;8.40;;;;;20.19;12.44;99285.94;6242241;27;98482;-73
2022/02/13 14:02:02;;;;;;;;;9.00;8.00;;;;;19.97;13.13;99290.06;6175675;28;97176;-72
2022/02/13 14:05:05;;;;;;;;;9.00;8.00;;;;;19.58;12.94;99274.16;6202160;28;97451;-71
2022/02/13 14:08:10;;;;;;;;;6.00;6.00;;;;;19.46;13.02;99268.94;6214096;28;96800;-72
2022/02/13 14:11:13;;;;;;;;;11.00;9.00;;;;;19.55;13.20;99263.75;6212791;28;97517;-71
2022/02/13 14:14:16;;;;;;;;;9.00;9.00;;;;;19.68;12.99;99265.97;6216147;28;96836;-71
2022/02/13 14:17:21;;;;;;;;;7.00;6.25;;;;;19.66;13.05;99261.84;6210481;28;97003;-71
2022/02/13 14:20:25;;;;;;;;;7.00;7.00;;;;;19.64;13.17;99250.38;6218222;28;96549;-69
2022/02/13 14:23:34;;;;;;;;;7.40;7.00;;;;;19.66;13.59;99223.56;6206180;28;96708;-70